sensor_id;sensor_type;location;lat;lon;timestamp;pressure;altitude;pressure_sealevel;temperature;humidity
1207;BME280;593;53.184;8.216;2023-02-15T00:01:38;102569.16;;;5.21;100.00
1207;BME280;593;53.184;8.216;2023-02-15T00:04:05;102578.28;;;5.19;100.00
1207;BME280;593;53.184;8.216;2023-02-15T00:06:30;102576.22;;;5.22;100.00
1207;BME280;593;53.184;8.216;2023-02-15T00:08:56;102576.81;;;5.17;100.00
1207;BME280;593;53.184;8.216;2023-02-15T00:11:22;102574.13;;;5.17;100.00
1207;BME280;593;53.184;8.216;2023-02-15T00:14:12;102577.41;;;5.12;100.00
1207;BME280;593;53.184;8.216;2023-02-15T00:16:40;102578.88;;;5.08;100.00
1207;BME280;593;53.184;8.216;2023-02-15T00:19:06;102576.97;;;5.09;100.00
1207;BME280;593;53.184;8.216;2023-02-15T00:21:33;102566.41;;;5.07;100.00
1207;BME280;593;53.184;8.216;2023-02-15T00:24:00;102568.25;;;5.07;100.00
1207;BME280;593;53.184;8.216;2023-02-15T00:26:26;102560.38;;;5.05;100.00
1207;BME280;593;53.184;8.216;2023-02-15T00:28:52;102560.16;;;5.00;100.00
1207;BME280;593;53.184;8.216;2023-02-15T00:31:18;102556.81;;;4.98;100.00
1207;BME280;593;53.184;8.216;2023-02-15T00:33:43;102564.06;;;4.98;100.00
1207;BME280;593;53.184;8.216;2023-02-15T00:36:10;102555.97;;;4.98;100.00
1207;BME280;593;53.184;8.216;2023-02-15T00:38:36;102553.28;;;4.98;100.00
1207;BME280;593;53.184;8.216;2023-02-15T00:41:04;102569.00;;;4.94;100.00
1207;BME280;593;53.184;8.216;2023-02-15T00:43:30;102562.38;;;4.90;100.00
1207;BME280;593;53.184;8.216;2023-02-15T00:45:56;102565.44;;;4.87;100.00
1207;BME280;593;53.184;8.216;2023-02-15T00:48:22;102551.13;;;4.87;100.00
1207;BME280;593;53.184;8.216;2023-02-15T00:50:53;102553.66;;;4.88;100.00
1207;BME280;593;53.184;8.216;2023-02-15T00:53:19;102554.03;;;4.85;100.00
1207;BME280;593;53.184;8.216;2023-02-15T00:55:45;102547.56;;;4.80;100.00
1207;BME280;593;53.184;8.216;2023-02-15T00:58:11;102541.34;;;4.79;100.00
1207;BME280;593;53.184;8.216;2023-02-15T01:00:38;102548.34;;;4.74;100.00
1207;BME280;593;53.184;8.216;2023-02-15T01:03:05;102546.88;;;4.71;100.00
1207;BME280;593;53.184;8.216;2023-02-15T01:05:31;102529.00;;;4.64;100.00
1207;BME280;593;53.184;8.216;2023-02-15T01:07:58;102537.97;;;4.71;100.00
1207;BME280;593;53.184;8.216;2023-02-15T01:10:24;102530.91;;;4.70;100.00
1207;BME280;593;53.184;8.216;2023-02-15T01:12:51;102524.91;;;4.68;100.00
1207;BME280;593;53.184;8.216;2023-02-15T01:15:17;102529.22;;;4.62;100.00
1207;BME280;593;53.184;8.216;2023-02-15T01:17:43;102522.13;;;4.61;100.00
1207;BME280;593;53.184;8.216;2023-02-15T01:20:11;102517.34;;;4.57;100.00
1207;BME280;593;53.184;8.216;2023-02-15T01:22:37;102518.81;;;4.59;100.00
1207;BME280;593;53.184;8.216;2023-02-15T01:25:02;102514.47;;;4.58;100.00
1207;BME280;593;53.184;8.216;2023-02-15T01:27:28;102515.50;;;4.57;100.00
1207;BME280;593;53.184;8.216;2023-02-15T01:29:55;102513.81;;;4.56;100.00
1207;BME280;593;53.184;8.216;2023-02-15T01:32:21;102507.16;;;4.52;100.00
1207;BME280;593;53.184;8.216;2023-02-15T01:34:46;102504.88;;;4.49;100.00
1207;BME280;593;53.184;8.216;2023-02-15T01:37:11;102508.59;;;4.48;100.00
1207;BME280;593;53.184;8.216;2023-02-15T01:39:37;102508.59;;;4.48;100.00
1207;BME280;593;53.184;8.216;2023-02-15T01:42:02;102489.50;;;4.43;100.00
1207;BME280;593;53.184;8.216;2023-02-15T01:47:15;102500.53;;;4.48;100.00
1207;BME280;593;53.184;8.216;2023-02-15T01:49:42;102505.84;;;4.41;100.00
1207;BME280;593;53.184;8.216;2023-02-15T01:52:11;102508.38;;;4.43;100.00
1207;BME280;593;53.184;8.216;2023-02-15T01:54:38;102499.63;;;4.41;100.00
1207;BME280;593;53.184;8.216;2023-02-15T01:57:10;102490.50;;;4.35;100.00
1207;BME280;593;53.184;8.216;2023-02-15T01:59:39;102503.53;;;4.38;100.00
1207;BME280;593;53.184;8.216;2023-02-15T02:02:07;102499.19;;;4.37;100.00
1207;BME280;593;53.184;8.216;2023-02-15T02:04:48;102509.75;;;4.39;100.00
1207;BME280;593;53.184;8.216;2023-02-15T02:07:17;102499.19;;;4.37;100.00
1207;BME280;593;53.184;8.216;2023-02-15T02:09:44;102486.56;;;4.38;100.00
1207;BME280;593;53.184;8.216;2023-02-15T02:12:10;102482.34;;;4.29;100.00
1207;BME280;593;53.184;8.216;2023-02-15T02:14:37;102486.72;;;4.30;100.00
1207;BME280;593;53.184;8.216;2023-02-15T02:17:21;102480.94;;;4.33;100.00
1207;BME280;593;53.184;8.216;2023-02-15T02:25:40;102468.25;;;4.27;100.00
1207;BME280;593;53.184;8.216;2023-02-15T02:36:52;102465.69;;;4.19;100.00
1207;BME280;593;53.184;8.216;2023-02-15T02:44:32;102464.81;;;4.12;100.00
1207;BME280;593;53.184;8.216;2023-02-15T02:47:09;102460.47;;;4.11;100.00
1207;BME280;593;53.184;8.216;2023-02-15T02:49:42;102455.28;;;4.09;100.00
1207;BME280;593;53.184;8.216;2023-02-15T02:52:38;102453.22;;;4.11;100.00
1207;BME280;593;53.184;8.216;2023-02-15T02:55:08;102444.13;;;4.12;100.00
1207;BME280;593;53.184;8.216;2023-02-15T02:57:37;102450.53;;;4.11;100.00
1207;BME280;593;53.184;8.216;2023-02-15T03:00:07;102447.19;;;4.09;100.00
1207;BME280;593;53.184;8.216;2023-02-15T03:02:37;102444.09;;;4.06;100.00
1207;BME280;593;53.184;8.216;2023-02-15T03:05:09;102436.78;;;4.00;100.00
1207;BME280;593;53.184;8.216;2023-02-15T03:07:37;102438.59;;;3.93;100.00
1207;BME280;593;53.184;8.216;2023-02-15T03:10:05;102447.75;;;3.98;100.00
1207;BME280;593;53.184;8.216;2023-02-15T03:12:36;102435.44;;;3.89;100.00
1207;BME280;593;53.184;8.216;2023-02-15T03:15:19;102440.22;;;3.94;100.00
1207;BME280;593;53.184;8.216;2023-02-15T03:17:49;102441.06;;;3.94;100.00
1207;BME280;593;53.184;8.216;2023-02-15T03:20:27;102435.50;;;3.96;100.00
1207;BME280;593;53.184;8.216;2023-02-15T03:23:06;102423.19;;;3.86;100.00
1207;BME280;593;53.184;8.216;2023-02-15T03:25:34;102415.75;;;3.88;100.00
1207;BME280;593;53.184;8.216;2023-02-15T03:28:05;102425.31;;;3.91;100.00
1207;BME280;593;53.184;8.216;2023-02-15T03:30:33;102429.19;;;3.82;100.00
1207;BME280;593;53.184;8.216;2023-02-15T03:33:00;102423.34;;;3.78;100.00
1207;BME280;593;53.184;8.216;2023-02-15T03:36:18;102426.47;;;3.82;100.00
1207;BME280;593;53.184;8.216;2023-02-15T03:38:21;102416.91;;;3.73;100.00
1207;BME280;593;53.184;8.216;2023-02-15T03:40:53;102428.09;;;3.76;100.00
1207;BME280;593;53.184;8.216;2023-02-15T03:46:20;102426.56;;;3.67;100.00
1207;BME280;593;53.184;8.216;2023-02-15T03:48:53;102425.16;;;3.71;100.00
1207;BME280;593;53.184;8.216;2023-02-15T03:51:26;102430.16;;;3.74;100.00
1207;BME280;593;53.184;8.216;2023-02-15T03:56:30;102409.94;;;3.57;100.00
1207;BME280;593;53.184;8.216;2023-02-15T03:58:56;102420.31;;;3.60;100.00
1207;BME280;593;53.184;8.216;2023-02-15T04:02:16;102434.97;;;3.58;100.00
1207;BME280;593;53.184;8.216;2023-02-15T04:04:47;102422.91;;;3.54;100.00
1207;BME280;593;53.184;8.216;2023-02-15T04:07:12;102423.00;;;3.60;100.00
1207;BME280;593;53.184;8.216;2023-02-15T04:09:38;102415.06;;;3.52;100.00
1207;BME280;593;53.184;8.216;2023-02-15T04:12:22;102418.63;;;3.59;100.00
1207;BME280;593;53.184;8.216;2023-02-15T04:14:48;102418.97;;;3.50;100.00
1207;BME280;593;53.184;8.216;2023-02-15T04:17:32;102419.00;;;3.56;100.00
1207;BME280;593;53.184;8.216;2023-02-15T04:19:57;102420.59;;;3.51;100.00
1207;BME280;593;53.184;8.216;2023-02-15T04:22:41;102422.03;;;3.47;100.00
1207;BME280;593;53.184;8.216;2023-02-15T04:25:25;102416.38;;;3.42;100.00
1207;BME280;593;53.184;8.216;2023-02-15T04:27:53;102425.28;;;3.42;100.00
1207;BME280;593;53.184;8.216;2023-02-15T04:30:21;102415.75;;;3.40;100.00
1207;BME280;593;53.184;8.216;2023-02-15T04:32:47;102410.38;;;3.40;100.00
1207;BME280;593;53.184;8.216;2023-02-15T04:35:13;102396.88;;;3.33;100.00
1207;BME280;593;53.184;8.216;2023-02-15T04:37:41;102398.03;;;3.45;100.00
1207;BME280;593;53.184;8.216;2023-02-15T04:40:08;102396.13;;;3.46;100.00
1207;BME280;593;53.184;8.216;2023-02-15T04:42:34;102367.69;;;3.30;100.00
1207;BME280;593;53.184;8.216;2023-02-15T04:44:59;102376.00;;;3.35;100.00
1207;BME280;593;53.184;8.216;2023-02-15T04:47:25;102379.31;;;3.37;100.00
1207;BME280;593;53.184;8.216;2023-02-15T04:49:50;102375.53;;;3.32;100.00
1207;BME280;593;53.184;8.216;2023-02-15T04:52:16;102378.44;;;3.30;100.00
1207;BME280;593;53.184;8.216;2023-02-15T04:54:43;102382.13;;;3.29;100.00
1207;BME280;593;53.184;8.216;2023-02-15T04:57:09;102389.19;;;3.30;100.00
1207;BME280;593;53.184;8.216;2023-02-15T04:59:34;102388.56;;;3.28;100.00
1207;BME280;593;53.184;8.216;2023-02-15T05:01:59;102385.66;;;3.30;100.00
1207;BME280;593;53.184;8.216;2023-02-15T05:04:25;102391.88;;;3.30;100.00
1207;BME280;593;53.184;8.216;2023-02-15T05:06:50;102386.94;;;3.34;100.00
1207;BME280;593;53.184;8.216;2023-02-15T05:09:16;102376.00;;;3.35;100.00
1207;BME280;593;53.184;8.216;2023-02-15T05:11:42;102374.91;;;3.30;100.00
1207;BME280;593;53.184;8.216;2023-02-15T05:14:07;102371.00;;;3.32;100.00
1207;BME280;593;53.184;8.216;2023-02-15T05:16:32;102376.59;;;3.31;100.00
1207;BME280;593;53.184;8.216;2023-02-15T05:18:58;102367.03;;;3.28;100.00
1207;BME280;593;53.184;8.216;2023-02-15T05:21:23;102368.81;;;3.21;100.00
1207;BME280;593;53.184;8.216;2023-02-15T05:23:49;102376.34;;;3.26;100.00
1207;BME280;593;53.184;8.216;2023-02-15T05:26:22;102367.59;;;3.23;100.00
1207;BME280;593;53.184;8.216;2023-02-15T05:29:07;102360.75;;;3.21;100.00
1207;BME280;593;53.184;8.216;2023-02-15T05:31:33;102360.75;;;3.21;100.00
1207;BME280;593;53.184;8.216;2023-02-15T05:33:59;102354.56;;;3.20;100.00
1207;BME280;593;53.184;8.216;2023-02-15T05:36:26;102361.59;;;3.21;100.00
1207;BME280;593;53.184;8.216;2023-02-15T05:39:05;102360.19;;;3.26;100.00
1207;BME280;593;53.184;8.216;2023-02-15T05:41:36;102351.03;;;3.20;100.00
1207;BME280;593;53.184;8.216;2023-02-15T05:44:02;102355.63;;;3.26;100.00
1207;BME280;593;53.184;8.216;2023-02-15T05:46:28;102354.81;;;3.26;100.00
1207;BME280;593;53.184;8.216;2023-02-15T05:48:56;102341.56;;;3.24;100.00
1207;BME280;593;53.184;8.216;2023-02-15T05:51:22;102340.66;;;3.17;100.00
1207;BME280;593;53.184;8.216;2023-02-15T05:53:54;102352.69;;;3.21;100.00
1207;BME280;593;53.184;8.216;2023-02-15T05:56:22;102338.34;;;3.14;100.00
1207;BME280;593;53.184;8.216;2023-02-15T05:58:47;102334.03;;;3.13;100.00
1207;BME280;593;53.184;8.216;2023-02-15T06:01:15;102342.13;;;3.19;100.00
1207;BME280;593;53.184;8.216;2023-02-15T06:03:42;102343.94;;;3.12;100.00
1207;BME280;593;53.184;8.216;2023-02-15T06:06:09;102333.75;;;3.08;100.00
1207;BME280;593;53.184;8.216;2023-02-15T06:08:36;102335.25;;;3.10;100.00
1207;BME280;593;53.184;8.216;2023-02-15T06:11:02;102336.03;;;3.11;100.00
1207;BME280;593;53.184;8.216;2023-02-15T06:13:29;102336.03;;;3.11;100.00
1207;BME280;593;53.184;8.216;2023-02-15T06:15:55;102333.19;;;3.12;100.00
1207;BME280;593;53.184;8.216;2023-02-15T06:18:20;102325.25;;;3.04;100.00
1207;BME280;593;53.184;8.216;2023-02-15T06:20:46;102327.09;;;3.04;100.00
1207;BME280;593;53.184;8.216;2023-02-15T06:23:12;102331.47;;;3.05;100.00
1207;BME280;593;53.184;8.216;2023-02-15T06:25:37;102329.78;;;3.04;100.00
1207;BME280;593;53.184;8.216;2023-02-15T06:28:03;102333.09;;;3.06;100.00
1207;BME280;593;53.184;8.216;2023-02-15T06:30:28;102328.88;;;2.97;100.00
1207;BME280;593;53.184;8.216;2023-02-15T06:32:54;102325.38;;;2.96;100.00
1207;BME280;593;53.184;8.216;2023-02-15T06:35:19;102315.19;;;2.92;100.00
1207;BME280;593;53.184;8.216;2023-02-15T06:37:46;102330.81;;;3.03;100.00
1207;BME280;593;53.184;8.216;2023-02-15T06:40:12;102328.13;;;3.03;100.00
1207;BME280;593;53.184;8.216;2023-02-15T06:42:37;102327.22;;;2.96;100.00
1207;BME280;593;53.184;8.216;2023-02-15T06:45:03;102324.53;;;2.96;100.00
1207;BME280;593;53.184;8.216;2023-02-15T06:47:29;102318.72;;;2.92;100.00
1207;BME280;593;53.184;8.216;2023-02-15T06:49:54;102313.72;;;2.89;100.00
1207;BME280;593;53.184;8.216;2023-02-15T07:47:01;102319.47;;;2.65;100.00
1207;BME280;593;53.184;8.216;2023-02-15T07:49:26;102321.84;;;2.75;100.00
1207;BME280;593;53.184;8.216;2023-02-15T07:51:51;102317.31;;;2.75;100.00
1207;BME280;593;53.184;8.216;2023-02-15T07:54:17;102324.59;;;2.81;100.00
1207;BME280;593;53.184;8.216;2023-02-15T07:56:42;102324.59;;;2.81;100.00
1207;BME280;593;53.184;8.216;2023-02-15T07:59:08;102321.72;;;2.83;100.00
1207;BME280;593;53.184;8.216;2023-02-15T08:01:36;102312.44;;;2.85;100.00
1207;BME280;593;53.184;8.216;2023-02-15T08:04:04;102314.34;;;2.91;100.00
1207;BME280;593;53.184;8.216;2023-02-15T08:06:33;102313.13;;;2.94;100.00
1207;BME280;593;53.184;8.216;2023-02-15T08:08:58;102319.81;;;2.98;100.00
1207;BME280;593;53.184;8.216;2023-02-15T08:11:29;102316.47;;;2.96;100.00
1207;BME280;593;53.184;8.216;2023-02-15T08:19:10;102317.06;;;3.12;100.00
1207;BME280;593;53.184;8.216;2023-02-15T08:21:39;102304.28;;;3.21;100.00
1207;BME280;593;53.184;8.216;2023-02-15T08:24:05;102311.16;;;3.23;100.00
1207;BME280;593;53.184;8.216;2023-02-15T08:26:31;102308.53;;;3.30;100.00
1207;BME280;593;53.184;8.216;2023-02-15T08:28:58;102310.63;;;3.35;100.00
1207;BME280;593;53.184;8.216;2023-02-15T08:31:23;102303.03;;;3.38;100.00
1207;BME280;593;53.184;8.216;2023-02-15T08:33:50;102301.81;;;3.41;100.00
1207;BME280;593;53.184;8.216;2023-02-15T08:36:21;102300.78;;;3.48;100.00
1207;BME280;593;53.184;8.216;2023-02-15T08:38:47;102296.31;;;3.55;100.00
1207;BME280;593;53.184;8.216;2023-02-15T08:41:22;102292.00;;;3.61;100.00
1207;BME280;593;53.184;8.216;2023-02-15T08:43:51;102297.44;;;3.67;100.00
1207;BME280;593;53.184;8.216;2023-02-15T08:46:17;102283.38;;;3.72;100.00
1207;BME280;593;53.184;8.216;2023-02-15T08:48:44;102283.84;;;3.75;100.00
1207;BME280;593;53.184;8.216;2023-02-15T08:51:15;102286.94;;;3.79;100.00
1207;BME280;593;53.184;8.216;2023-02-15T08:53:44;102279.31;;;3.82;100.00
1207;BME280;593;53.184;8.216;2023-02-15T08:56:11;102261.31;;;3.83;100.00
1207;BME280;593;53.184;8.216;2023-02-15T08:58:37;102266.97;;;3.95;100.00
1207;BME280;593;53.184;8.216;2023-02-15T09:01:33;102272.38;;;4.01;100.00
1207;BME280;593;53.184;8.216;2023-02-15T09:04:02;102258.72;;;4.03;100.00
1207;BME280;593;53.184;8.216;2023-02-15T09:06:29;102267.22;;;4.06;100.00
1207;BME280;593;53.184;8.216;2023-02-15T09:08:56;102256.50;;;4.13;100.00
1207;BME280;593;53.184;8.216;2023-02-15T09:11:24;102251.13;;;4.19;100.00
1207;BME280;593;53.184;8.216;2023-02-15T09:14:04;102244.50;;;4.15;100.00
1207;BME280;593;53.184;8.216;2023-02-15T09:16:33;102247.03;;;4.30;100.00
1207;BME280;593;53.184;8.216;2023-02-15T09:18:59;102243.31;;;4.37;100.00
1207;BME280;593;53.184;8.216;2023-02-15T09:21:28;102246.25;;;4.42;100.00
1207;BME280;593;53.184;8.216;2023-02-15T09:24:00;102235.88;;;4.39;100.00
1207;BME280;593;53.184;8.216;2023-02-15T09:26:29;102249.56;;;4.51;100.00
1207;BME280;593;53.184;8.216;2023-02-15T09:28:57;102245.22;;;4.57;100.00
1207;BME280;593;53.184;8.216;2023-02-15T09:31:30;102243.38;;;4.64;100.00
1207;BME280;593;53.184;8.216;2023-02-15T09:33:56;102240.69;;;4.64;100.00
1207;BME280;593;53.184;8.216;2023-02-15T09:36:33;102244.66;;;4.74;100.00
1207;BME280;593;53.184;8.216;2023-02-15T09:47:06;102247.78;;;5.04;100.00
1207;BME280;593;53.184;8.216;2023-02-15T09:49:57;102252.38;;;5.10;100.00
1207;BME280;593;53.184;8.216;2023-02-15T10:04:14;102216.66;;;5.34;100.00
1207;BME280;593;53.184;8.216;2023-02-15T10:12:38;102259.34;;;5.76;100.00
1207;BME280;593;53.184;8.216;2023-02-15T10:21:49;102241.25;;;5.97;100.00
1207;BME280;593;53.184;8.216;2023-02-15T10:26:43;102240.19;;;6.04;100.00
1207;BME280;593;53.184;8.216;2023-02-15T10:35:09;102244.66;;;6.30;100.00
1207;BME280;593;53.184;8.216;2023-02-15T10:43:14;102235.34;;;6.57;100.00
1207;BME280;593;53.184;8.216;2023-02-15T10:54:02;102223.94;;;6.86;100.00
1207;BME280;593;53.184;8.216;2023-02-15T10:56:38;102227.63;;;6.92;100.00
1207;BME280;593;53.184;8.216;2023-02-15T10:59:18;102216.38;;;6.95;100.00
1207;BME280;593;53.184;8.216;2023-02-15T11:01:54;102217.38;;;7.00;100.00
1207;BME280;593;53.184;8.216;2023-02-15T11:04:48;102219.41;;;7.05;100.00
1207;BME280;593;53.184;8.216;2023-02-15T11:07:21;102221.00;;;7.13;100.00
1207;BME280;593;53.184;8.216;2023-02-15T11:09:51;102209.75;;;7.16;100.00
1207;BME280;593;53.184;8.216;2023-02-15T11:12:24;102212.38;;;7.22;100.00
1207;BME280;593;53.184;8.216;2023-02-15T11:15:02;102209.84;;;7.27;100.00
1207;BME280;593;53.184;8.216;2023-02-15T11:17:35;102207.91;;;7.34;100.00
1207;BME280;593;53.184;8.216;2023-02-15T11:20:21;102207.03;;;7.40;100.00
1207;BME280;593;53.184;8.216;2023-02-15T11:22:49;102205.06;;;7.47;100.00
1207;BME280;593;53.184;8.216;2023-02-15T11:25:22;102207.50;;;7.55;100.00
1207;BME280;593;53.184;8.216;2023-02-15T11:27:50;102205.22;;;7.52;100.00
1207;BME280;593;53.184;8.216;2023-02-15T11:30:24;102196.72;;;7.67;100.00
1207;BME280;593;53.184;8.216;2023-02-15T11:32:57;102179.28;;;7.63;100.00
1207;BME280;593;53.184;8.216;2023-02-15T11:35:33;102182.91;;;7.75;100.00
1207;BME280;593;53.184;8.216;2023-02-15T11:40:41;102184.09;;;7.79;100.00
1207;BME280;593;53.184;8.216;2023-02-15T11:46:01;102180.19;;;7.93;100.00
1207;BME280;593;53.184;8.216;2023-02-15T11:48:29;102171.47;;;7.91;100.00
1207;BME280;593;53.184;8.216;2023-02-15T11:50:56;102176.69;;;8.04;100.00
1207;BME280;593;53.184;8.216;2023-02-15T11:53:22;102169.78;;;8.08;100.00
1207;BME280;593;53.184;8.216;2023-02-15T11:55:53;102159.91;;;8.14;100.00
1207;BME280;593;53.184;8.216;2023-02-15T11:58:37;102160.25;;;8.17;100.00
1207;BME280;593;53.184;8.216;2023-02-15T12:01:20;102157.94;;;8.21;100.00
1207;BME280;593;53.184;8.216;2023-02-15T12:03:54;102166.38;;;8.31;100.00
1207;BME280;593;53.184;8.216;2023-02-15T12:06:32;102163.22;;;8.34;100.00
1207;BME280;593;53.184;8.216;2023-02-15T12:11:33;102153.91;;;8.42;100.00
1207;BME280;593;53.184;8.216;2023-02-15T12:14:02;102151.94;;;8.49;100.00
1207;BME280;593;53.184;8.216;2023-02-15T12:16:33;102153.09;;;8.53;100.00
1207;BME280;593;53.184;8.216;2023-02-15T12:19:04;102141.81;;;8.56;100.00
1207;BME280;593;53.184;8.216;2023-02-15T12:21:34;102133.41;;;8.57;100.00
1207;BME280;593;53.184;8.216;2023-02-15T12:24:44;102133.34;;;8.64;100.00
1207;BME280;593;53.184;8.216;2023-02-15T12:27:17;102121.19;;;8.66;100.00
1207;BME280;593;53.184;8.216;2023-02-15T12:29:48;102118.22;;;8.68;100.00
1207;BME280;593;53.184;8.216;2023-02-15T12:32:23;102110.22;;;8.73;100.00
1207;BME280;593;53.184;8.216;2023-02-15T12:34:51;102104.09;;;8.77;100.00
1207;BME280;593;53.184;8.216;2023-02-15T12:37:21;102104.69;;;8.79;100.00
1207;BME280;593;53.184;8.216;2023-02-15T12:42:18;102104.91;;;8.89;100.00
1207;BME280;593;53.184;8.216;2023-02-15T12:47:20;102107.53;;;8.96;100.00
1207;BME280;593;53.184;8.216;2023-02-15T12:50:15;102117.53;;;9.07;100.00
1207;BME280;593;53.184;8.216;2023-02-15T12:52:48;102111.44;;;9.12;100.00
1207;BME280;593;53.184;8.216;2023-02-15T12:55:21;102103.16;;;9.18;100.00
1207;BME280;593;53.184;8.216;2023-02-15T12:57:47;102106.81;;;9.24;100.00
1207;BME280;593;53.184;8.216;2023-02-15T13:02:52;102097.69;;;9.30;100.00
1207;BME280;593;53.184;8.216;2023-02-15T13:07:58;102076.81;;;9.30;100.00
1207;BME280;593;53.184;8.216;2023-02-15T13:10:28;102092.38;;;9.46;100.00
1207;BME280;593;53.184;8.216;2023-02-15T13:12:55;102092.59;;;9.45;100.00
1207;BME280;593;53.184;8.216;2023-02-15T13:15:44;102089.03;;;9.56;100.00
1207;BME280;593;53.184;8.216;2023-02-15T13:18:18;102083.44;;;9.62;100.00
1207;BME280;593;53.184;8.216;2023-02-15T13:20:46;102081.81;;;9.61;100.00
1207;BME280;593;53.184;8.216;2023-02-15T13:23:26;102089.00;;;9.67;100.00
1207;BME280;593;53.184;8.216;2023-02-15T13:25:58;102080.25;;;9.65;100.00
1207;BME280;593;53.184;8.216;2023-02-15T13:28:32;102084.97;;;9.70;100.00
1207;BME280;593;53.184;8.216;2023-02-15T13:31:01;102073.81;;;9.83;100.00
1207;BME280;593;53.184;8.216;2023-02-15T13:33:32;102078.53;;;9.88;100.00
1207;BME280;593;53.184;8.216;2023-02-15T13:36:09;102079.94;;;9.90;100.00
1207;BME280;593;53.184;8.216;2023-02-15T13:38:49;102073.28;;;9.98;100.00
1207;BME280;593;53.184;8.216;2023-02-15T13:46:52;102059.38;;;10.11;100.00
1207;BME280;593;53.184;8.216;2023-02-15T13:49:33;102054.66;;;10.18;100.00
1207;BME280;593;53.184;8.216;2023-02-15T14:17:15;102039.00;;;10.58;100.00
1207;BME280;593;53.184;8.216;2023-02-15T14:19:50;102030.25;;;10.56;100.00
1207;BME280;593;53.184;8.216;2023-02-15T14:22:40;102031.09;;;10.57;100.00
1207;BME280;593;53.184;8.216;2023-02-15T14:31:07;102022.25;;;10.66;100.00
1207;BME280;593;53.184;8.216;2023-02-15T14:33:38;102016.25;;;10.64;100.00
1207;BME280;593;53.184;8.216;2023-02-15T14:36:07;102018.13;;;10.64;100.00
1207;BME280;593;53.184;8.216;2023-02-15T14:44:20;101990.94;;;10.64;100.00
1207;BME280;593;53.184;8.216;2023-02-15T14:46:57;101992.56;;;10.65;100.00
1207;BME280;593;53.184;8.216;2023-02-15T14:49:33;101990.66;;;10.65;100.00
1207;BME280;593;53.184;8.216;2023-02-15T14:52:05;101991.75;;;10.64;100.00
1207;BME280;593;53.184;8.216;2023-02-15T15:02:26;101985.00;;;10.67;100.00
1207;BME280;593;53.184;8.216;2023-02-15T15:05:14;101981.69;;;10.65;100.00
1207;BME280;593;53.184;8.216;2023-02-15T15:07:48;101977.81;;;10.61;100.00
1207;BME280;593;53.184;8.216;2023-02-15T15:12:54;101972.13;;;10.62;100.00
1207;BME280;593;53.184;8.216;2023-02-15T15:17:54;101973.69;;;10.58;100.00
1207;BME280;593;53.184;8.216;2023-02-15T15:31:05;101961.91;;;10.53;100.00
1207;BME280;593;53.184;8.216;2023-02-15T15:39:47;101963.00;;;10.52;100.00
1207;BME280;593;53.184;8.216;2023-02-15T15:42:36;101958.06;;;10.49;100.00
1207;BME280;593;53.184;8.216;2023-02-15T15:50:57;101962.94;;;10.47;100.00
1207;BME280;593;53.184;8.216;2023-02-15T15:53:25;101954.44;;;10.43;100.00
1207;BME280;593;53.184;8.216;2023-02-15T15:55:57;101953.13;;;10.46;100.00
1207;BME280;593;53.184;8.216;2023-02-15T15:58:23;101956.31;;;10.43;100.00
1207;BME280;593;53.184;8.216;2023-02-15T16:00:51;101950.25;;;10.36;100.00
1207;BME280;593;53.184;8.216;2023-02-15T16:03:23;101961.47;;;10.39;100.00
1207;BME280;593;53.184;8.216;2023-02-15T16:05:48;101974.81;;;10.41;100.00
1207;BME280;593;53.184;8.216;2023-02-15T16:08:35;101964.97;;;10.40;100.00
1207;BME280;593;53.184;8.216;2023-02-15T16:11:24;101970.34;;;10.35;100.00
1207;BME280;593;53.184;8.216;2023-02-15T16:13:50;101960.22;;;10.30;100.00
1207;BME280;593;53.184;8.216;2023-02-15T16:16:27;101962.72;;;10.32;100.00
1207;BME280;593;53.184;8.216;2023-02-15T16:18:55;101965.91;;;10.28;100.00
1207;BME280;593;53.184;8.216;2023-02-15T16:21:24;101964.44;;;10.21;100.00
1207;BME280;593;53.184;8.216;2023-02-15T16:24:16;101972.09;;;10.24;100.00
1207;BME280;593;53.184;8.216;2023-02-15T16:27:01;101965.50;;;10.20;100.00
1207;BME280;593;53.184;8.216;2023-02-15T16:29:33;101954.41;;;10.10;100.00
1207;BME280;593;53.184;8.216;2023-02-15T16:32:04;101959.41;;;10.13;100.00
1207;BME280;593;53.184;8.216;2023-02-15T16:34:31;101943.47;;;10.05;100.00
1207;BME280;593;53.184;8.216;2023-02-15T16:37:13;101945.38;;;10.04;100.00
1207;BME280;593;53.184;8.216;2023-02-15T16:39:41;101950.22;;;10.02;100.00
1207;BME280;593;53.184;8.216;2023-02-15T16:42:07;101937.06;;;9.94;100.00
1207;BME280;593;53.184;8.216;2023-02-15T16:44:33;101937.28;;;9.93;100.00
1207;BME280;593;53.184;8.216;2023-02-15T16:46:59;101936.97;;;9.89;100.00
1207;BME280;593;53.184;8.216;2023-02-15T16:49:27;101937.47;;;9.86;100.00
1207;BME280;593;53.184;8.216;2023-02-15T16:51:56;101939.34;;;9.86;100.00
1207;BME280;593;53.184;8.216;2023-02-15T16:54:24;101925.13;;;9.79;100.00
1207;BME280;593;53.184;8.216;2023-02-15T16:56:51;101927.16;;;9.72;100.00
1207;BME280;593;53.184;8.216;2023-02-15T17:01:47;101934.72;;;9.69;100.00
1207;BME280;593;53.184;8.216;2023-02-15T17:04:27;101937.69;;;9.68;100.00
1207;BME280;593;53.184;8.216;2023-02-15T17:07:16;101941.72;;;9.65;100.00
1207;BME280;593;53.184;8.216;2023-02-15T17:09:55;101936.53;;;9.64;100.00
1207;BME280;593;53.184;8.216;2023-02-15T17:12:46;101946.81;;;9.62;100.00
1207;BME280;593;53.184;8.216;2023-02-15T17:15:31;101931.59;;;9.61;100.00
1207;BME280;593;53.184;8.216;2023-02-15T17:18:23;101940.22;;;9.58;100.00
1207;BME280;593;53.184;8.216;2023-02-15T17:20:59;101945.09;;;9.56;100.00
1207;BME280;593;53.184;8.216;2023-02-15T17:23:31;101938.25;;;9.53;100.00
1207;BME280;593;53.184;8.216;2023-02-15T17:25:58;101938.72;;;9.50;100.00
1207;BME280;593;53.184;8.216;2023-02-15T17:28:30;101934.97;;;9.51;100.00
1207;BME280;593;53.184;8.216;2023-02-15T17:30:57;101931.88;;;9.48;100.00
1207;BME280;593;53.184;8.216;2023-02-15T17:36:05;101923.06;;;9.41;100.00
1207;BME280;593;53.184;8.216;2023-02-15T17:38:31;101922.72;;;9.37;100.00
1207;BME280;593;53.184;8.216;2023-02-15T17:40:57;101917.19;;;9.32;100.00
1207;BME280;593;53.184;8.216;2023-02-15T17:43:24;101918.50;;;9.30;100.00